createdAt,value
2023-12-08T00:00:37.605Z,8.02
2023-12-08T00:03:05.552Z,9.57
2023-12-08T00:05:33.461Z,9.57
2023-12-08T00:08:01.425Z,8.57
2023-12-08T00:10:29.299Z,10.20
2023-12-08T00:12:57.233Z,8.65
2023-12-08T00:15:26.432Z,8.65
2023-12-08T00:17:54.691Z,8.48
2023-12-08T00:20:22.656Z,8.73
2023-12-08T00:22:51.262Z,10.10
2023-12-08T00:25:19.237Z,8.75
2023-12-08T00:27:47.106Z,8.95
2023-12-08T00:30:15.402Z,7.78
2023-12-08T00:32:44.751Z,8.63
2023-12-08T00:35:12.768Z,9.57
2023-12-08T00:37:40.640Z,8.75
2023-12-08T00:40:09.469Z,8.68
2023-12-08T00:42:37.328Z,7.60
2023-12-08T00:45:05.928Z,7.60
2023-12-08T00:47:33.989Z,8.75
2023-12-08T00:50:03.518Z,8.25
2023-12-08T00:52:31.393Z,7.90
2023-12-08T00:54:59.240Z,8.05
2023-12-08T00:57:27.669Z,9.02
2023-12-08T00:59:56.383Z,8.80
2023-12-08T01:02:24.266Z,7.80
2023-12-08T01:04:52.144Z,8.15
2023-12-08T01:07:21.432Z,8.18
2023-12-08T01:09:49.284Z,7.88
2023-12-08T01:12:17.379Z,7.57
2023-12-08T01:14:45.319Z,8.93
2023-12-08T01:17:13.265Z,7.72
2023-12-08T01:19:41.171Z,8.30
2023-12-08T01:22:09.100Z,8.15
2023-12-08T01:24:39.136Z,7.88
2023-12-08T01:27:07.065Z,8.68
2023-12-08T01:29:34.946Z,8.10
2023-12-08T01:32:03.232Z,8.20
2023-12-08T01:34:31.085Z,8.50
2023-12-08T01:36:59.036Z,8.88
2023-12-08T01:39:27.087Z,8.30
2023-12-08T01:41:56.318Z,7.25
2023-12-08T01:44:24.222Z,9.07
2023-12-08T01:46:53.673Z,9.05
2023-12-08T01:49:22.178Z,8.77
2023-12-08T01:51:51.736Z,7.57
2023-12-08T01:54:19.764Z,9.52
2023-12-08T01:56:47.850Z,8.30
2023-12-08T01:59:17.274Z,9.05
2023-12-08T02:01:45.466Z,9.48
2023-12-08T02:04:13.383Z,8.80
2023-12-08T02:06:41.274Z,8.85
2023-12-08T02:09:10.961Z,7.70
2023-12-08T02:11:39.274Z,9.68
2023-12-08T02:14:07.541Z,8.63
2023-12-08T02:16:44.048Z,8.75
2023-12-08T02:19:15.399Z,8.07
2023-12-08T02:21:44.453Z,9.20
2023-12-08T02:24:13.747Z,8.50
2023-12-08T02:26:41.741Z,8.75
2023-12-08T02:29:10.854Z,8.13
2023-12-08T02:31:44.873Z,8.07
2023-12-08T02:34:15.819Z,7.68
2023-12-08T02:36:45.492Z,7.95
2023-12-08T02:39:17.169Z,10.27
2023-12-08T02:41:46.041Z,9.15
2023-12-08T02:44:13.896Z,8.57
2023-12-08T02:46:42.033Z,7.45
2023-12-08T02:49:10.072Z,7.22
2023-12-08T02:51:38.037Z,8.48
2023-12-08T02:54:06.020Z,8.75
2023-12-08T02:56:35.291Z,10.23
2023-12-08T02:59:03.164Z,8.45
2023-12-08T03:01:31.021Z,7.55
2023-12-08T03:03:59.086Z,8.38
2023-12-08T03:06:26.962Z,9.65
2023-12-08T03:08:55.334Z,7.72
2023-12-08T03:11:23.240Z,9.48
2023-12-08T03:13:52.420Z,7.72
2023-12-08T03:16:20.261Z,7.95
2023-12-08T03:18:48.336Z,8.10
2023-12-08T03:21:23.374Z,8.82
2023-12-08T03:23:51.397Z,8.00
2023-12-08T03:26:20.581Z,8.43
2023-12-08T03:28:48.520Z,7.32
2023-12-08T03:31:28.659Z,6.93
2023-12-08T03:33:56.876Z,7.28
2023-12-08T03:36:25.049Z,7.78
2023-12-08T03:38:52.952Z,7.13
2023-12-08T03:41:20.810Z,8.00
2023-12-08T03:43:48.758Z,7.55
2023-12-08T03:46:16.659Z,8.32
2023-12-08T03:48:46.691Z,7.75
2023-12-08T03:51:14.957Z,9.55
2023-12-08T03:53:42.874Z,8.20
2023-12-08T03:56:11.134Z,7.53
2023-12-08T03:58:38.956Z,7.07
2023-12-08T04:01:07.415Z,7.45
2023-12-08T04:03:35.638Z,7.18
2023-12-08T04:06:05.164Z,7.10
2023-12-08T04:08:33.158Z,8.68
2023-12-08T04:11:01.013Z,7.80
2023-12-08T04:13:28.858Z,9.82
2023-12-08T04:15:56.741Z,8.07
2023-12-08T04:18:24.694Z,7.50
2023-12-08T04:20:52.657Z,9.13
2023-12-08T04:23:21.930Z,8.57
2023-12-08T04:25:49.830Z,8.02
2023-12-08T04:28:17.683Z,8.40
2023-12-08T04:30:45.626Z,8.18
2023-12-08T04:33:13.855Z,7.22
2023-12-08T04:35:41.765Z,7.43
2023-12-08T04:38:09.657Z,8.10
2023-12-08T04:40:38.851Z,8.80
2023-12-08T04:43:06.717Z,8.27
2023-12-08T04:45:34.607Z,7.93
2023-12-08T04:48:02.623Z,8.55
2023-12-08T04:50:30.503Z,8.98
2023-12-08T04:52:58.585Z,8.23
2023-12-08T04:55:26.693Z,7.70
2023-12-08T04:57:55.923Z,8.43
2023-12-08T05:00:23.890Z,7.15
2023-12-08T05:02:51.812Z,8.65
2023-12-08T05:05:19.876Z,7.93
2023-12-08T05:07:47.826Z,8.75
2023-12-08T05:10:15.690Z,8.50
2023-12-08T05:12:43.541Z,7.78
2023-12-08T05:15:13.199Z,8.02
2023-12-08T05:17:41.305Z,8.88
2023-12-08T05:20:12.754Z,9.35
2023-12-08T05:22:40.745Z,9.13
2023-12-08T05:25:09.537Z,8.30
2023-12-08T05:27:37.604Z,8.90
2023-12-08T05:30:06.512Z,8.95
2023-12-08T05:32:35.884Z,10.07
2023-12-08T05:35:04.035Z,9.25
2023-12-08T05:37:31.907Z,9.98
2023-12-08T05:39:59.779Z,8.80
2023-12-08T05:42:27.664Z,11.27
2023-12-08T05:44:55.545Z,9.95
2023-12-08T05:47:23.434Z,10.00
2023-12-08T05:49:52.702Z,9.80
2023-12-08T05:52:20.657Z,9.07
2023-12-08T05:54:48.528Z,8.65
2023-12-08T05:57:16.733Z,8.30
2023-12-08T05:59:44.693Z,10.27
2023-12-08T06:02:12.583Z,10.88
2023-12-08T06:04:40.630Z,11.20
2023-12-08T06:07:09.987Z,11.07
2023-12-08T06:09:37.938Z,11.00
2023-12-08T06:12:06.634Z,10.63
2023-12-08T06:14:34.663Z,11.10
2023-12-08T06:17:02.792Z,11.18
2023-12-08T06:19:30.959Z,11.57
2023-12-08T06:21:58.899Z,9.95
2023-12-08T06:24:28.140Z,10.43
2023-12-08T06:26:56.097Z,12.05
2023-12-08T06:29:24.001Z,10.55
2023-12-08T06:31:51.868Z,11.05
2023-12-08T06:34:20.179Z,10.90
2023-12-08T06:36:49.137Z,11.05
2023-12-08T06:39:17.765Z,11.18
2023-12-08T06:41:47.123Z,11.43
2023-12-08T06:44:15.107Z,11.77
2023-12-08T06:46:43.781Z,11.02
2023-12-08T06:49:11.883Z,11.77
2023-12-08T06:51:39.891Z,11.13
2023-12-08T06:54:07.785Z,11.38
2023-12-08T06:56:36.553Z,11.40
2023-12-08T06:59:06.006Z,10.63
2023-12-08T07:01:33.948Z,11.10
2023-12-08T07:04:01.842Z,11.68
2023-12-08T07:06:29.715Z,11.20
2023-12-08T07:08:57.695Z,12.63
2023-12-08T07:11:25.704Z,11.40
2023-12-08T07:13:53.585Z,9.95
2023-12-08T07:16:22.795Z,11.60
2023-12-08T07:18:50.805Z,10.90
2023-12-08T07:21:18.764Z,11.35
2023-12-08T07:23:46.666Z,10.75
2023-12-08T07:26:15.243Z,11.02
2023-12-08T07:28:43.751Z,11.13
2023-12-08T07:31:13.232Z,10.32
2023-12-08T07:33:42.756Z,12.40
2023-12-08T07:36:11.398Z,11.38
2023-12-08T07:38:39.308Z,12.30
2023-12-08T07:41:08.380Z,12.20
2023-12-08T07:43:36.713Z,10.43
2023-12-08T07:46:05.195Z,10.98
2023-12-08T07:48:33.407Z,11.93
2023-12-08T07:51:02.702Z,11.77
2023-12-08T07:53:31.047Z,12.52
2023-12-08T07:55:58.907Z,9.85
2023-12-08T07:58:27.458Z,12.93
2023-12-08T08:00:55.336Z,12.10
2023-12-08T08:03:23.375Z,12.98
2023-12-08T08:05:51.429Z,12.05
2023-12-08T08:08:20.676Z,10.95
2023-12-08T08:10:48.529Z,12.07
2023-12-08T08:13:16.725Z,11.48
2023-12-08T08:15:44.604Z,11.10
2023-12-08T08:18:12.572Z,12.35
2023-12-08T08:20:40.504Z,12.20
2023-12-08T08:23:08.609Z,12.73
2023-12-08T08:25:37.922Z,14.68
2023-12-08T08:28:06.022Z,12.82
2023-12-08T08:30:34.464Z,11.80
2023-12-08T08:33:02.705Z,12.52
2023-12-08T08:35:30.797Z,10.77
2023-12-08T08:37:59.264Z,12.23
2023-12-08T08:40:27.335Z,11.80
2023-12-08T08:42:57.076Z,12.73
2023-12-08T08:45:25.082Z,10.18
2023-12-08T08:47:53.140Z,10.80
2023-12-08T08:50:22.334Z,12.27
2023-12-08T08:52:50.319Z,11.73
2023-12-08T08:55:18.567Z,13.07
2023-12-08T08:57:47.171Z,11.75
2023-12-08T09:00:19.280Z,12.45
2023-12-08T09:02:52.630Z,13.40
2023-12-08T09:05:20.662Z,13.48
2023-12-08T09:07:48.638Z,10.57
2023-12-08T09:10:17.289Z,16.98
2023-12-08T09:12:45.997Z,19.73
2023-12-08T09:15:14.586Z,19.15
2023-12-08T09:17:44.291Z,13.18
2023-12-08T09:20:15.415Z,13.40
2023-12-08T09:22:43.735Z,13.63
2023-12-08T09:25:12.371Z,11.90
2023-12-08T09:27:40.562Z,12.00
2023-12-08T09:30:09.884Z,11.80
2023-12-08T09:32:37.867Z,12.48
2023-12-08T09:35:07.670Z,14.30
2023-12-08T09:37:37.786Z,12.13
2023-12-08T09:40:09.357Z,12.23
2023-12-08T09:42:41.320Z,11.63
2023-12-08T09:45:11.959Z,13.70
2023-12-08T09:47:42.629Z,14.80
2023-12-08T09:50:14.724Z,13.05
2023-12-08T09:52:44.749Z,15.25
2023-12-08T09:55:13.371Z,12.38
2023-12-08T09:57:44.944Z,13.55
2023-12-08T10:00:14.874Z,11.75
2023-12-08T10:02:43.783Z,14.45
2023-12-08T10:05:13.480Z,11.05
2023-12-08T10:07:44.667Z,11.73
2023-12-08T10:10:13.144Z,13.68
2023-12-08T10:12:41.751Z,12.23
2023-12-08T10:15:12.080Z,11.13
2023-12-08T10:17:49.894Z,11.80
2023-12-08T10:20:20.872Z,13.40
2023-12-08T10:22:50.119Z,12.88
2023-12-08T10:25:19.217Z,12.45
2023-12-08T10:27:48.377Z,11.10
2023-12-08T10:30:16.910Z,11.77
2023-12-08T10:32:45.289Z,10.73
2023-12-08T10:35:13.873Z,10.90
2023-12-08T10:37:44.327Z,10.35
2023-12-08T10:40:14.230Z,11.80
2023-12-08T10:42:42.375Z,11.98
2023-12-08T10:45:12.037Z,11.15
2023-12-08T10:47:41.703Z,11.25
2023-12-08T10:50:11.312Z,12.10
2023-12-08T10:52:40.395Z,11.10
2023-12-08T10:55:11.217Z,11.27
2023-12-08T10:57:40.000Z,10.30
2023-12-08T11:00:18.159Z,10.90
2023-12-08T11:02:51.455Z,12.43
2023-12-08T11:05:24.748Z,9.23
2023-12-08T11:07:55.609Z,10.68
2023-12-08T11:10:26.786Z,10.38
2023-12-08T11:13:00.067Z,12.15
2023-12-08T11:15:33.131Z,9.90
2023-12-08T11:18:14.346Z,11.18
2023-12-08T11:20:43.863Z,10.98
2023-12-08T11:23:13.636Z,11.70
2023-12-08T11:25:48.658Z,10.63
2023-12-08T11:28:25.087Z,12.23
2023-12-08T11:30:57.425Z,11.15
2023-12-08T11:33:32.900Z,11.50
2023-12-08T11:36:09.163Z,10.95
2023-12-08T11:38:38.798Z,10.38
2023-12-08T11:41:14.438Z,12.05
2023-12-08T11:43:44.690Z,12.10
2023-12-08T11:46:13.539Z,10.63
2023-12-08T11:48:43.492Z,12.35
2023-12-08T11:51:13.194Z,11.27
2023-12-08T11:53:59.058Z,10.05
2023-12-08T11:56:42.836Z,11.95
2023-12-08T11:59:15.222Z,12.13
2023-12-08T12:01:43.865Z,11.48
2023-12-08T12:04:14.461Z,12.30
2023-12-08T12:06:44.782Z,11.27
2023-12-08T12:09:15.097Z,10.82
2023-12-08T12:11:45.991Z,9.90
2023-12-08T12:14:18.359Z,11.13
2023-12-08T12:16:48.229Z,14.27
2023-12-08T12:19:16.381Z,11.68
2023-12-08T12:21:45.356Z,12.00
2023-12-08T12:24:13.392Z,13.85
2023-12-08T12:26:41.376Z,11.90
2023-12-08T12:29:10.926Z,12.75
2023-12-08T12:31:39.191Z,12.30
2023-12-08T12:34:07.436Z,12.10
2023-12-08T12:36:35.575Z,10.98
2023-12-08T12:39:05.287Z,11.77
2023-12-08T12:41:33.570Z,12.27
2023-12-08T12:44:03.347Z,10.93
2023-12-08T12:46:32.778Z,11.43
2023-12-08T12:49:01.185Z,13.35
2023-12-08T12:51:38.265Z,11.73
2023-12-08T12:54:07.257Z,13.13
2023-12-08T12:56:36.420Z,13.07
2023-12-08T12:59:08.582Z,13.45
2023-12-08T13:01:38.845Z,12.93
2023-12-08T13:04:07.078Z,13.73
2023-12-08T13:06:37.595Z,13.10
2023-12-08T13:09:07.856Z,13.15
2023-12-08T13:11:36.087Z,12.80
2023-12-08T13:14:04.141Z,12.63
2023-12-08T13:16:32.182Z,12.98
2023-12-08T13:19:01.755Z,12.50
2023-12-08T13:21:30.037Z,12.85
2023-12-08T13:23:58.149Z,13.02
2023-12-08T13:26:26.361Z,13.10
2023-12-08T13:28:54.348Z,12.75
2023-12-08T13:31:22.672Z,12.20
2023-12-08T13:33:50.838Z,12.25
2023-12-08T13:36:20.253Z,15.18
2023-12-08T13:38:48.769Z,12.20
2023-12-08T13:41:16.757Z,12.95
2023-12-08T13:43:44.804Z,13.10
2023-12-08T13:46:12.777Z,13.80
2023-12-08T13:48:41.540Z,14.57
2023-12-08T13:51:28.415Z,14.93
2023-12-08T13:53:58.892Z,13.15
2023-12-08T13:56:27.140Z,13.48
2023-12-08T13:58:55.503Z,15.93
2023-12-08T14:01:23.548Z,12.65
2023-12-08T14:03:51.732Z,12.70
2023-12-08T14:06:20.858Z,13.02
2023-12-08T14:08:48.988Z,12.80
2023-12-08T14:11:18.417Z,12.25
2023-12-08T14:13:46.355Z,14.75
2023-12-08T14:16:14.521Z,13.80
2023-12-08T14:18:42.730Z,14.77
2023-12-08T14:21:12.387Z,15.35
2023-12-08T14:23:43.327Z,12.85
2023-12-08T14:26:11.866Z,13.55
2023-12-08T14:28:41.304Z,12.82
2023-12-08T14:31:09.350Z,14.50
2023-12-08T14:33:37.721Z,13.95
2023-12-08T14:36:07.104Z,14.68
2023-12-08T14:38:35.297Z,14.98
2023-12-08T14:41:04.031Z,15.07
2023-12-08T14:43:32.194Z,14.43
2023-12-08T14:46:04.272Z,13.07
2023-12-08T14:48:33.623Z,13.30
2023-12-08T14:51:01.892Z,12.40
2023-12-08T14:53:30.020Z,12.02
2023-12-08T14:55:59.764Z,14.32
2023-12-08T14:58:28.476Z,16.17
2023-12-08T15:00:56.505Z,13.60
2023-12-08T15:03:26.190Z,13.07
2023-12-08T15:05:54.580Z,14.70
2023-12-08T15:08:25.069Z,13.10
2023-12-08T15:10:53.795Z,12.98
2023-12-08T15:13:21.758Z,12.98
2023-12-08T15:15:49.904Z,12.10
2023-12-08T15:18:18.018Z,13.52
2023-12-08T15:20:51.579Z,12.75
2023-12-08T15:23:21.529Z,13.48
2023-12-08T15:25:49.995Z,13.98
2023-12-08T15:28:18.027Z,11.65
2023-12-08T15:30:47.059Z,12.00
2023-12-08T15:33:15.473Z,11.93
2023-12-08T15:35:43.673Z,12.55
2023-12-08T15:38:13.228Z,12.02
2023-12-08T15:40:41.193Z,12.75
2023-12-08T15:43:09.314Z,11.60
2023-12-08T15:45:37.426Z,12.15
2023-12-08T15:48:06.088Z,11.75
2023-12-08T15:50:34.136Z,13.52
2023-12-08T15:53:02.107Z,14.68
2023-12-08T15:55:31.558Z,15.25
2023-12-08T15:57:59.691Z,13.73
2023-12-08T16:00:27.889Z,14.52
2023-12-08T16:02:56.087Z,15.35
2023-12-08T16:05:24.287Z,12.18
2023-12-08T16:07:52.385Z,12.70
2023-12-08T16:10:20.478Z,14.02
2023-12-08T16:12:50.913Z,14.25
2023-12-08T16:15:19.176Z,13.23
2023-12-08T16:17:47.268Z,13.45
2023-12-08T16:20:15.367Z,13.90
2023-12-08T16:22:44.211Z,14.13
2023-12-08T16:25:12.399Z,14.52
2023-12-08T16:27:40.403Z,15.75
2023-12-08T16:30:11.017Z,14.32
2023-12-08T16:32:42.264Z,13.10
2023-12-08T16:35:14.373Z,11.40
2023-12-08T16:37:42.570Z,14.15
2023-12-08T16:40:12.994Z,14.48
2023-12-08T16:42:41.416Z,14.10
2023-12-08T16:45:11.547Z,13.35
2023-12-08T16:47:39.734Z,14.55
2023-12-08T16:50:09.142Z,13.95
2023-12-08T16:52:37.260Z,13.90
2023-12-08T16:55:07.114Z,15.18
2023-12-08T16:57:35.111Z,15.63
2023-12-08T17:00:04.869Z,13.55
2023-12-08T17:02:34.180Z,13.07
2023-12-08T17:05:02.191Z,14.50
2023-12-08T17:07:30.679Z,15.02
2023-12-08T17:09:58.657Z,14.50
2023-12-08T17:12:26.904Z,13.30
2023-12-08T17:14:54.977Z,12.98
2023-12-08T17:17:23.093Z,14.25
2023-12-08T17:19:52.645Z,11.65
2023-12-08T17:22:20.647Z,13.75
2023-12-08T17:24:48.837Z,14.25
2023-12-08T17:27:16.810Z,14.18
2023-12-08T17:29:44.860Z,12.65
2023-12-08T17:32:13.301Z,12.88
2023-12-08T17:34:41.497Z,13.48
2023-12-08T17:37:11.014Z,13.60
2023-12-08T17:39:38.976Z,13.60
2023-12-08T17:42:07.214Z,13.30
2023-12-08T17:44:36.034Z,15.30
2023-12-08T17:47:04.277Z,13.38
2023-12-08T17:49:32.577Z,11.80
2023-12-08T17:52:00.773Z,13.38
2023-12-08T17:54:30.622Z,11.15
2023-12-08T17:56:59.138Z,12.00
2023-12-08T17:59:27.244Z,11.75
2023-12-08T18:01:55.391Z,11.70
2023-12-08T18:04:23.527Z,13.00
2023-12-08T18:06:51.644Z,11.65
2023-12-08T18:09:19.886Z,12.88
2023-12-08T18:11:49.308Z,11.77
2023-12-08T18:14:17.429Z,10.55
2023-12-08T18:16:49.275Z,10.65
2023-12-08T18:19:19.052Z,10.52
2023-12-08T18:21:47.115Z,9.43
2023-12-08T18:24:15.146Z,10.77
2023-12-08T18:26:43.544Z,10.13
2023-12-08T18:29:13.023Z,9.82
2023-12-08T18:31:41.094Z,10.43
2023-12-08T18:34:09.398Z,7.97
2023-12-08T18:36:38.037Z,8.82
2023-12-08T18:39:06.917Z,10.77
2023-12-08T18:41:35.889Z,10.65
2023-12-08T18:44:03.891Z,11.23
2023-12-08T18:46:34.313Z,13.07
2023-12-08T18:49:03.266Z,12.18
2023-12-08T18:51:31.986Z,10.20
2023-12-08T18:54:00.360Z,11.13
2023-12-08T18:56:28.870Z,12.00
2023-12-08T18:58:56.948Z,10.70
2023-12-08T19:01:25.517Z,9.63
2023-12-08T19:03:55.008Z,11.38
2023-12-08T19:06:23.175Z,10.27
2023-12-08T19:08:51.314Z,10.00
2023-12-08T19:11:20.916Z,11.63
2023-12-08T19:13:48.884Z,9.43
2023-12-08T19:16:17.031Z,10.45
2023-12-08T19:18:45.216Z,10.48
2023-12-08T19:21:14.765Z,9.98
2023-12-08T19:23:43.450Z,9.38
2023-12-08T19:26:11.571Z,10.50
2023-12-08T19:28:40.384Z,9.38
2023-12-08T19:31:08.568Z,9.07
2023-12-08T19:33:36.764Z,9.73
2023-12-08T19:36:05.709Z,10.23
2023-12-08T19:38:35.134Z,9.70
2023-12-08T19:41:03.780Z,10.80
2023-12-08T19:43:31.794Z,9.95
2023-12-08T19:46:00.234Z,11.75
2023-12-08T19:48:28.756Z,12.23
2023-12-08T19:50:57.212Z,12.73
2023-12-08T19:53:25.264Z,11.18
2023-12-08T19:55:54.570Z,14.30
2023-12-08T19:58:22.544Z,11.68
2023-12-08T20:00:50.585Z,11.05
2023-12-08T20:03:18.644Z,12.65
2023-12-08T20:05:46.849Z,11.15
2023-12-08T20:08:15.223Z,10.88
2023-12-08T20:10:43.223Z,10.65
2023-12-08T20:13:12.563Z,12.40
2023-12-08T20:15:43.711Z,10.05
2023-12-08T20:18:12.120Z,11.38
2023-12-08T20:20:40.457Z,14.75
2023-12-08T20:23:08.324Z,15.23
2023-12-08T20:25:37.165Z,13.65
2023-12-08T20:28:05.330Z,12.75
2023-12-08T20:30:35.381Z,13.13
2023-12-08T20:33:03.580Z,14.02
2023-12-08T20:35:31.599Z,14.00
2023-12-08T20:37:59.449Z,17.48
2023-12-08T20:40:27.269Z,12.88
2023-12-08T20:42:55.122Z,15.00
2023-12-08T20:45:23.110Z,14.02
2023-12-08T20:47:52.455Z,13.52
2023-12-08T20:50:20.410Z,12.32
2023-12-08T20:52:48.288Z,13.43
2023-12-08T20:55:16.288Z,13.48
2023-12-08T20:57:44.296Z,12.45
2023-12-08T21:00:12.782Z,13.48
2023-12-08T21:02:40.654Z,11.95
2023-12-08T21:05:10.288Z,11.82
2023-12-08T21:07:38.200Z,12.70
2023-12-08T21:10:07.855Z,12.70
2023-12-08T21:12:35.762Z,11.80
2023-12-08T21:15:04.503Z,11.60
2023-12-08T21:17:32.427Z,10.80
2023-12-08T21:20:00.567Z,9.70
2023-12-08T21:22:29.887Z,10.05
2023-12-08T21:24:57.754Z,11.55
2023-12-08T21:27:25.878Z,9.73
2023-12-08T21:29:55.155Z,10.30
2023-12-08T21:32:23.709Z,10.68
2023-12-08T21:34:52.400Z,10.60
2023-12-08T21:37:20.880Z,10.45
2023-12-08T21:39:50.305Z,10.60
2023-12-08T21:42:18.286Z,11.35
2023-12-08T21:44:46.153Z,10.60
2023-12-08T21:47:14.669Z,9.50
2023-12-08T21:49:42.713Z,9.90
2023-12-08T21:52:10.650Z,10.32
2023-12-08T21:54:38.536Z,10.45
2023-12-08T21:57:07.927Z,10.65
2023-12-08T21:59:35.954Z,10.85
2023-12-08T22:02:03.802Z,11.55
2023-12-08T22:04:31.699Z,10.63
2023-12-08T22:07:00.573Z,10.82
2023-12-08T22:09:28.481Z,11.57
2023-12-08T22:11:56.464Z,11.45
2023-12-08T22:14:25.745Z,12.10
2023-12-08T22:16:53.680Z,13.45
2023-12-08T22:19:21.734Z,12.48
2023-12-08T22:21:49.734Z,11.95
2023-12-08T22:24:17.590Z,10.05
2023-12-08T22:26:45.494Z,11.13
2023-12-08T22:29:13.673Z,11.38
2023-12-08T22:31:42.905Z,10.80
2023-12-08T22:34:11.291Z,12.57
2023-12-08T22:36:39.541Z,10.85
2023-12-08T22:39:07.405Z,11.48
2023-12-08T22:41:35.280Z,10.57
2023-12-08T22:44:03.299Z,12.05
2023-12-08T22:46:31.153Z,13.63
2023-12-08T22:49:00.458Z,11.18
2023-12-08T22:51:38.424Z,13.13
2023-12-08T22:54:16.361Z,12.45
2023-12-08T22:56:44.617Z,11.65
2023-12-08T22:59:12.470Z,12.50
2023-12-08T23:01:41.119Z,11.15
2023-12-08T23:04:10.712Z,10.75
2023-12-08T23:06:39.594Z,10.13
2023-12-08T23:09:09.578Z,8.27
2023-12-08T23:11:37.649Z,7.28
2023-12-08T23:14:05.725Z,8.63
2023-12-08T23:16:33.774Z,6.95
2023-12-08T23:19:01.783Z,8.00
2023-12-08T23:21:31.058Z,9.13
2023-12-08T23:23:58.998Z,8.02
2023-12-08T23:26:26.856Z,9.68
2023-12-08T23:28:54.902Z,7.85
2023-12-08T23:31:22.851Z,9.13
2023-12-08T23:33:51.004Z,8.75
2023-12-08T23:36:19.009Z,8.93
2023-12-08T23:38:48.602Z,10.45
2023-12-08T23:41:16.583Z,8.75
2023-12-08T23:43:44.470Z,7.68
2023-12-08T23:46:12.410Z,9.25
2023-12-08T23:48:40.418Z,9.70
2023-12-08T23:51:08.682Z,10.75
2023-12-08T23:53:37.066Z,8.10
2023-12-08T23:56:06.945Z,8.82
2023-12-08T23:58:34.895Z,8.82
